Time;durP1;ratioP1;P1;durP2;ratioP2;P2;SDS_P1;SDS_P2;PMS_P1;PMS_P2;Temp;Humidity;BMP_temperature;BMP_pressure;BME280_temperature;BME280_humidity;BME280_pressure;Samples;Min_cycle;Max_cycle;Signal;HPM_P1;HPM_P2
2024/01/10 00:01:16;;;;;;;45.80;26.33;;;-3.90;99.50;;;;;;4931576;28;20221;-54
2024/01/10 00:03:41;;;;;;;54.20;29.33;;;-3.80;99.50;;;;;;4929487;28;20198;-53
2024/01/10 00:06:07;;;;;;;44.43;25.60;;;-3.80;99.50;;;;;;4928185;28;20194;-53
2024/01/10 00:08:32;;;;;;;53.23;28.57;;;-3.90;99.60;;;;;;4936032;28;20337;-50
2024/01/10 00:10:57;;;;;;;46.97;27.73;;;-3.80;99.70;;;;;;4937092;28;20305;-50
2024/01/10 00:13:23;;;;;;;47.27;27.43;;;-3.60;99.20;;;;;;4940959;28;20206;-51
2024/01/10 00:15:49;;;;;;;47.00;27.63;;;-3.60;99.30;;;;;;4935804;28;20234;-49
2024/01/10 00:18:15;;;;;;;46.63;27.13;;;-3.70;99.30;;;;;;4927735;28;20228;-50
2024/01/10 00:20:40;;;;;;;49.90;28.83;;;-3.70;99.20;;;;;;4945417;28;20198;-50
2024/01/10 00:23:06;;;;;;;52.83;30.80;;;-3.80;99.20;;;;;;4933467;28;20203;-50
2024/01/10 00:25:32;;;;;;;52.03;29.77;;;-3.80;99.40;;;;;;4936539;28;20202;-51
2024/01/10 00:27:58;;;;;;;51.80;30.20;;;-3.90;99.30;;;;;;4936429;28;20206;-50
2024/01/10 00:30:25;;;;;;;51.83;28.70;;;-3.70;99.00;;;;;;4932794;28;20240;-49
2024/01/10 00:32:51;;;;;;;50.43;29.40;;;-3.50;98.80;;;;;;4933812;28;20201;-50
2024/01/10 00:35:16;;;;;;;45.57;27.27;;;-3.60;99.80;;;;;;4936934;28;20216;-50
2024/01/10 00:37:42;;;;;;;50.50;29.00;;;-3.50;99.50;;;;;;4942412;28;20201;-57
2024/01/10 00:40:08;;;;;;;50.27;29.93;;;-3.50;99.60;;;;;;4946356;28;20722;-61
2024/01/10 00:42:34;;;;;;;53.10;30.13;;;-3.70;99.40;;;;;;4948913;28;20292;-57
2024/01/10 00:44:59;;;;;;;52.60;28.73;;;-3.70;99.50;;;;;;4936879;28;20231;-58
2024/01/10 00:47:25;;;;;;;57.67;31.90;;;-3.60;99.00;;;;;;4941010;28;20237;-57
2024/01/10 00:49:50;;;;;;;54.83;28.33;;;-3.80;99.40;;;;;;4939630;28;20198;-50
2024/01/10 00:52:16;;;;;;;49.27;30.57;;;-3.80;99.70;;;;;;4941735;28;20210;-50
2024/01/10 00:54:41;;;;;;;52.13;29.77;;;-3.70;99.90;;;;;;4961834;28;20297;-50
2024/01/10 00:57:07;;;;;;;54.33;32.17;;;-3.80;98.90;;;;;;4943670;28;20490;-50
2024/01/10 00:59:32;;;;;;;52.77;30.43;;;-3.80;99.00;;;;;;4940634;28;20197;-50
2024/01/10 01:01:58;;;;;;;53.37;30.07;;;-3.90;99.50;;;;;;4941372;28;20229;-49
2024/01/10 01:04:23;;;;;;;46.37;30.30;;;-3.80;99.10;;;;;;4938865;28;20261;-50
2024/01/10 01:06:48;;;;;;;57.13;31.60;;;-3.70;97.80;;;;;;4941295;28;20910;-50
2024/01/10 01:09:15;;;;;;;53.23;30.10;;;-3.70;97.80;;;;;;4939119;28;20287;-50
2024/01/10 01:11:41;;;;;;;58.57;30.53;;;-3.90;99.00;;;;;;4941447;28;20198;-49
2024/01/10 01:14:06;;;;;;;51.67;28.43;;;-3.90;98.60;;;;;;4968809;28;20208;-59
2024/01/10 01:16:32;;;;;;;51.53;29.60;;;-3.80;97.40;;;;;;4932088;28;20436;-52
2024/01/10 01:18:57;;;;;;;46.87;27.83;;;-3.90;97.00;;;;;;4939996;28;20581;-52
2024/01/10 01:21:23;;;;;;;51.83;29.10;;;-4.20;98.00;;;;;;4943255;28;20284;-57
2024/01/10 01:23:48;;;;;;;54.97;27.93;;;-4.20;98.70;;;;;;4942711;28;20692;-67
2024/01/10 01:26:14;;;;;;;53.73;30.90;;;-4.20;98.30;;;;;;4937607;28;20229;-57
2024/01/10 01:28:40;;;;;;;53.03;28.90;;;-4.20;98.30;;;;;;4933114;28;20318;-52
2024/01/10 01:31:05;;;;;;;50.20;27.03;;;-4.30;98.50;;;;;;4931749;28;20643;-50
2024/01/10 01:33:31;;;;;;;46.17;27.40;;;-4.20;98.50;;;;;;4933699;28;20461;-59
2024/01/10 01:35:56;;;;;;;56.33;29.70;;;-4.00;98.00;;;;;;4940565;28;20686;-51
2024/01/10 01:38:22;;;;;;;63.70;30.27;;;-4.00;97.90;;;;;;4932034;28;20213;-51
2024/01/10 01:40:47;;;;;;;57.60;27.63;;;-4.00;97.90;;;;;;4932585;28;20217;-51
2024/01/10 01:43:24;;;;;;;47.00;27.37;;;-4.00;97.20;;;;;;4940374;28;20206;-51
2024/01/10 01:45:55;;;;;;;52.23;27.20;;;-4.00;96.80;;;;;;4932437;28;20198;-51
2024/01/10 01:48:21;;;;;;;48.23;27.23;;;-4.10;96.90;;;;;;4935900;28;20289;-51
2024/01/10 01:50:51;;;;;;;48.80;27.10;;;-4.30;97.70;;;;;;4934320;28;20206;-55
2024/01/10 01:53:17;;;;;;;44.97;27.60;;;-4.30;98.40;;;;;;4936396;28;20438;-57
2024/01/10 01:55:44;;;;;;;53.10;28.47;;;-4.40;98.30;;;;;;4934099;28;20203;-52
2024/01/10 01:58:11;;;;;;;50.73;27.70;;;-4.50;98.60;;;;;;4936852;28;20247;-51
2024/01/10 02:00:37;;;;;;;52.03;28.33;;;-4.40;99.10;;;;;;4933139;28;20207;-51
2024/01/10 02:03:04;;;;;;;59.77;30.40;;;-4.40;99.20;;;;;;4930918;28;20218;-53
2024/01/10 02:05:30;;;;;;;51.70;29.50;;;-4.40;99.20;;;;;;4934160;28;20202;-54
2024/01/10 02:07:55;;;;;;;50.17;27.53;;;-4.50;99.20;;;;;;4934130;28;20206;-55
2024/01/10 02:10:21;;;;;;;47.07;26.97;;;-4.50;99.50;;;;;;4932545;28;20558;-50
2024/01/10 02:12:47;;;;;;;48.10;28.13;;;-4.50;99.60;;;;;;4934952;28;20193;-51
2024/01/10 02:15:14;;;;;;;49.80;30.27;;;-4.70;99.70;;;;;;4929322;28;20202;-51
2024/01/10 02:17:39;;;;;;;46.03;28.03;;;-5.40;99.90;;;;;;4929172;28;20580;-51
2024/01/10 02:20:13;;;;;;;52.17;30.57;;;-5.30;99.90;;;;;;4936916;28;20204;-51
2024/01/10 02:22:38;;;;;;;51.33;29.17;;;-5.20;99.90;;;;;;4931239;28;20214;-52
2024/01/10 02:25:08;;;;;;;46.80;27.67;;;-5.20;99.90;;;;;;4933835;28;20218;-54
2024/01/10 02:27:35;;;;;;;50.60;28.83;;;-5.20;99.90;;;;;;4934417;28;20242;-52
2024/01/10 02:30:03;;;;;;;55.63;29.70;;;-5.20;99.90;;;;;;4935023;28;20209;-51
2024/01/10 02:32:29;;;;;;;49.03;28.07;;;-5.00;99.90;;;;;;4941405;28;20244;-52
2024/01/10 02:34:55;;;;;;;47.17;26.60;;;-4.90;99.90;;;;;;4941937;28;20229;-51
2024/01/10 02:37:21;;;;;;;45.13;26.93;;;-4.70;99.90;;;;;;4938787;28;20731;-52
2024/01/10 02:39:46;;;;;;;51.10;26.77;;;-4.60;99.90;;;;;;4938713;28;20293;-51
2024/01/10 02:42:12;;;;;;;46.67;28.63;;;-4.50;99.90;;;;;;4931541;28;20217;-52
2024/01/10 02:44:37;;;;;;;52.80;28.00;;;-4.50;99.90;;;;;;4932651;28;20595;-51
2024/01/10 02:47:03;;;;;;;43.97;26.30;;;-4.40;99.90;;;;;;4927549;28;20288;-53
2024/01/10 02:49:29;;;;;;;50.17;31.43;;;-4.40;99.90;;;;;;4930997;28;20255;-52
2024/01/10 02:51:54;;;;;;;42.60;26.67;;;-4.50;99.90;;;;;;4930968;28;20210;-50
2024/01/10 02:54:20;;;;;;;54.67;29.87;;;-4.70;99.90;;;;;;4930319;28;20205;-50
2024/01/10 02:56:45;;;;;;;46.77;28.20;;;-4.60;99.90;;;;;;4932565;28;20288;-51
2024/01/10 02:59:11;;;;;;;47.70;26.33;;;-4.60;99.90;;;;;;4941434;28;20289;-51
2024/01/10 03:01:36;;;;;;;47.63;28.57;;;-4.90;99.90;;;;;;4941988;28;20217;-52
2024/01/10 03:04:02;;;;;;;53.87;29.40;;;-5.10;99.90;;;;;;4932480;28;20202;-52
2024/01/10 03:06:27;;;;;;;51.30;29.37;;;-5.10;99.90;;;;;;4933781;28;20205;-52
2024/01/10 03:08:54;;;;;;;52.80;30.43;;;-5.10;99.90;;;;;;4938282;28;20206;-52
2024/01/10 03:11:20;;;;;;;55.10;29.03;;;-5.10;99.90;;;;;;4937638;28;20202;-52
2024/01/10 03:13:46;;;;;;;52.03;28.37;;;-5.10;99.90;;;;;;4940121;28;20213;-58
2024/01/10 03:16:12;;;;;;;47.70;27.97;;;-5.20;99.90;;;;;;4932149;28;20214;-52
2024/01/10 03:18:38;;;;;;;54.00;30.43;;;-5.30;99.90;;;;;;4931572;28;20218;-53
2024/01/10 03:21:04;;;;;;;54.73;30.30;;;-5.20;99.90;;;;;;4931203;28;20296;-59
2024/01/10 03:23:29;;;;;;;61.87;32.47;;;-5.10;99.90;;;;;;4940104;28;20320;-61
2024/01/10 03:25:56;;;;;;;48.87;31.00;;;-5.00;99.90;;;;;;4941780;28;20212;-60
2024/01/10 03:28:21;;;;;;;53.77;29.77;;;-5.00;99.90;;;;;;4938391;28;20683;-52
2024/01/10 03:30:47;;;;;;;55.30;30.43;;;-5.00;99.90;;;;;;4940903;28;20727;-52
2024/01/10 03:33:13;;;;;;;56.70;29.10;;;-4.90;99.90;;;;;;4928980;28;20255;-52
2024/01/10 03:35:38;;;;;;;57.10;33.20;;;-4.90;99.90;;;;;;4939441;28;20205;-60
2024/01/10 03:38:04;;;;;;;50.23;31.20;;;-5.00;99.90;;;;;;4940595;28;20676;-60
2024/01/10 03:40:29;;;;;;;52.77;30.33;;;-5.00;99.90;;;;;;4941400;28;20238;-58
2024/01/10 03:42:55;;;;;;;51.93;31.07;;;-5.00;99.90;;;;;;4937221;28;20283;-57
2024/01/10 03:45:22;;;;;;;55.47;30.23;;;-5.00;99.90;;;;;;4937565;28;20235;-58
2024/01/10 03:47:51;;;;;;;50.07;29.97;;;-4.90;99.90;;;;;;4939147;28;20258;-59
2024/01/10 03:50:19;;;;;;;51.30;28.83;;;-4.90;99.90;;;;;;4936928;28;20233;-58
2024/01/10 03:52:45;;;;;;;56.37;31.10;;;-4.90;99.90;;;;;;4936251;28;20331;-52
2024/01/10 03:55:12;;;;;;;56.43;30.20;;;-4.80;99.90;;;;;;4940771;28;20285;-52
2024/01/10 03:57:40;;;;;;;54.60;30.33;;;-4.80;99.90;;;;;;4939302;28;20197;-50
2024/01/10 04:00:06;;;;;;;60.27;31.10;;;-4.80;99.90;;;;;;4937864;28;21016;-51
2024/01/10 04:02:32;;;;;;;53.10;31.43;;;-4.90;99.90;;;;;;4936564;28;20276;-53
2024/01/10 04:04:58;;;;;;;56.07;31.87;;;-4.90;99.90;;;;;;4936560;28;20206;-51
2024/01/10 04:07:23;;;;;;;53.67;29.67;;;-4.90;99.90;;;;;;4936684;28;20206;-50
2024/01/10 04:09:49;;;;;;;56.73;30.67;;;-5.00;99.90;;;;;;4939505;28;20213;-51
2024/01/10 04:12:15;;;;;;;55.90;31.27;;;-5.10;99.90;;;;;;4937548;28;20217;-50
2024/01/10 04:14:40;;;;;;;61.90;32.30;;;-5.10;99.90;;;;;;4937186;28;20656;-50
2024/01/10 04:17:06;;;;;;;58.03;30.90;;;-5.10;99.90;;;;;;4933610;28;20198;-51
2024/01/10 04:19:32;;;;;;;50.80;32.53;;;-5.30;99.90;;;;;;4933958;28;20186;-51
2024/01/10 04:21:58;;;;;;;58.90;31.43;;;-5.40;99.90;;;;;;4931846;28;20230;-51
2024/01/10 04:24:24;;;;;;;51.83;31.40;;;-5.70;99.90;;;;;;4934421;28;20203;-51
2024/01/10 04:26:50;;;;;;;51.87;30.63;;;-5.70;99.90;;;;;;4937188;28;20213;-51
2024/01/10 04:29:15;;;;;;;50.90;30.20;;;-5.70;99.90;;;;;;4935912;28;20721;-51
2024/01/10 04:31:41;;;;;;;54.20;30.27;;;-5.80;99.90;;;;;;4935238;28;20228;-50
2024/01/10 04:34:06;;;;;;;53.50;32.43;;;-5.80;99.90;;;;;;4935223;28;20206;-50
2024/01/10 04:36:32;;;;;;;56.20;33.63;;;-5.60;99.90;;;;;;4937727;28;20197;-50
2024/01/10 04:38:57;;;;;;;50.87;32.00;;;-5.50;99.90;;;;;;4935726;28;20213;-52
2024/01/10 04:41:23;;;;;;;51.60;29.67;;;-5.50;99.90;;;;;;4940967;28;20206;-51
2024/01/10 04:43:49;;;;;;;52.07;31.93;;;-5.60;99.90;;;;;;4938432;28;20226;-51
2024/01/10 04:46:14;;;;;;;60.50;32.10;;;-5.40;99.90;;;;;;4931457;28;20233;-51
2024/01/10 04:48:40;;;;;;;55.17;30.63;;;-5.50;99.90;;;;;;4935648;28;20723;-51
2024/01/10 04:51:05;;;;;;;59.20;33.07;;;-5.30;99.90;;;;;;4937356;28;20210;-51
2024/01/10 04:53:31;;;;;;;50.53;30.93;;;-5.10;99.90;;;;;;4932611;28;20214;-50
2024/01/10 04:55:56;;;;;;;56.97;31.87;;;-5.00;99.90;;;;;;4940142;28;20195;-52
2024/01/10 04:58:22;;;;;;;47.67;31.90;;;-5.00;99.90;;;;;;4933715;28;20217;-52
2024/01/10 05:00:47;;;;;;;58.57;31.00;;;-5.00;99.90;;;;;;4932360;28;20228;-49
2024/01/10 05:03:13;;;;;;;51.50;31.13;;;-4.90;99.90;;;;;;4938654;28;20285;-51
2024/01/10 05:05:38;;;;;;;56.97;31.17;;;-4.70;99.90;;;;;;4935806;28;20198;-51
2024/01/10 05:08:05;;;;;;;55.30;30.93;;;-4.50;99.90;;;;;;4940304;28;20222;-51
2024/01/10 05:10:30;;;;;;;49.23;30.23;;;-4.60;99.90;;;;;;4937347;28;20209;-51
2024/01/10 05:12:56;;;;;;;55.10;32.20;;;-4.70;99.90;;;;;;4939383;28;20206;-51
2024/01/10 05:15:21;;;;;;;59.97;31.67;;;-5.00;99.90;;;;;;4938709;28;20206;-51
2024/01/10 05:17:47;;;;;;;64.60;31.77;;;-5.30;99.90;;;;;;4936472;28;20256;-51
2024/01/10 05:20:13;;;;;;;51.80;31.23;;;-5.30;99.90;;;;;;4941922;28;20210;-51
2024/01/10 05:22:40;;;;;;;52.23;31.10;;;-5.20;99.90;;;;;;4937947;28;20654;-52
2024/01/10 05:25:06;;;;;;;65.63;33.83;;;-5.40;99.90;;;;;;4938454;28;20687;-52
2024/01/10 05:27:32;;;;;;;54.43;32.10;;;-5.40;99.90;;;;;;4942275;28;20956;-51
2024/01/10 05:29:59;;;;;;;55.10;32.17;;;-5.50;99.90;;;;;;4934800;28;20234;-50
2024/01/10 05:32:25;;;;;;;62.30;33.07;;;-5.50;99.90;;;;;;4941204;28;20393;-51
2024/01/10 05:34:50;;;;;;;66.83;34.33;;;-5.50;99.90;;;;;;4934115;28;20742;-51
2024/01/10 05:37:16;;;;;;;61.43;34.93;;;-5.40;99.90;;;;;;4938381;28;20222;-51
2024/01/10 05:39:41;;;;;;;56.97;34.70;;;-5.40;99.90;;;;;;4936463;28;20217;-51
2024/01/10 05:42:07;;;;;;;56.63;32.30;;;-5.20;99.90;;;;;;4933980;28;20222;-52
2024/01/10 05:44:32;;;;;;;61.10;33.57;;;-5.10;99.90;;;;;;4939046;28;20230;-52
2024/01/10 05:46:59;;;;;;;67.40;36.80;;;-4.90;99.90;;;;;;4939917;28;20213;-51
2024/01/10 05:49:25;;;;;;;57.33;33.60;;;-4.80;99.90;;;;;;4934598;28;20206;-51
2024/01/10 05:51:51;;;;;;;61.73;34.40;;;-5.00;99.90;;;;;;4937594;28;20215;-51
2024/01/10 05:54:18;;;;;;;58.97;35.83;;;-5.20;99.90;;;;;;4937518;28;20210;-51
2024/01/10 05:56:43;;;;;;;60.53;33.57;;;-5.40;99.90;;;;;;4940443;28;20198;-51
2024/01/10 05:59:11;;;;;;;58.97;33.10;;;-5.50;99.90;;;;;;4939069;28;20965;-51
2024/01/10 06:01:38;;;;;;;66.00;35.80;;;-5.60;99.90;;;;;;4938393;28;20224;-51
2024/01/10 06:04:04;;;;;;;57.23;33.67;;;-5.60;99.90;;;;;;4938519;28;20611;-50
2024/01/10 06:06:29;;;;;;;62.67;34.70;;;-5.70;99.90;;;;;;4938335;28;20915;-50
2024/01/10 06:08:55;;;;;;;59.87;34.50;;;-5.70;99.90;;;;;;4937736;28;20221;-51
2024/01/10 06:11:20;;;;;;;66.53;35.57;;;-5.80;99.90;;;;;;4939960;28;20202;-51
2024/01/10 06:13:46;;;;;;;62.23;33.10;;;-5.60;99.90;;;;;;4941458;28;20273;-51
2024/01/10 06:16:13;;;;;;;56.27;33.00;;;-5.50;99.90;;;;;;4935414;28;20210;-51
2024/01/10 06:18:38;;;;;;;60.17;32.27;;;-5.60;99.90;;;;;;4937367;28;20198;-51
2024/01/10 06:21:04;;;;;;;58.83;35.07;;;-5.70;99.90;;;;;;4937916;28;20208;-50
2024/01/10 06:23:29;;;;;;;59.40;32.50;;;-5.70;99.90;;;;;;4937668;28;20669;-53
2024/01/10 06:25:55;;;;;;;56.87;32.53;;;-5.70;99.90;;;;;;4933454;28;20210;-50
2024/01/10 06:28:21;;;;;;;63.47;35.13;;;-5.60;99.90;;;;;;4931332;28;20293;-51
2024/01/10 06:30:47;;;;;;;68.07;34.47;;;-5.60;99.90;;;;;;4937998;28;20252;-51
2024/01/10 06:33:12;;;;;;;60.50;34.20;;;-5.50;99.90;;;;;;4937591;28;20678;-51
2024/01/10 06:35:38;;;;;;;56.27;31.50;;;-5.40;99.90;;;;;;4937895;28;20231;-50
2024/01/10 06:38:03;;;;;;;63.23;36.23;;;-5.40;99.90;;;;;;4934797;28;20205;-52
2024/01/10 06:40:30;;;;;;;54.17;31.63;;;-5.40;99.90;;;;;;4931995;28;20206;-52
2024/01/10 06:42:55;;;;;;;55.87;35.03;;;-5.30;99.90;;;;;;4940429;28;20264;-61
2024/01/10 06:45:23;;;;;;;57.87;34.33;;;-5.10;99.90;;;;;;4938666;28;20313;-62
2024/01/10 06:47:49;;;;;;;62.33;33.03;;;-5.00;99.90;;;;;;4939849;28;20215;-59
2024/01/10 06:50:15;;;;;;;55.37;34.00;;;-4.90;99.90;;;;;;4931157;28;20195;-51
2024/01/10 06:52:41;;;;;;;55.93;30.97;;;-4.90;99.90;;;;;;4926358;28;20312;-54
2024/01/10 06:55:08;;;;;;;61.90;35.70;;;-4.90;99.90;;;;;;4930652;28;20277;-50
2024/01/10 06:57:33;;;;;;;57.13;33.30;;;-5.30;99.90;;;;;;4934613;28;20564;-54
2024/01/10 06:59:59;;;;;;;60.20;32.70;;;-5.40;99.90;;;;;;4935130;28;20366;-62
2024/01/10 07:02:24;;;;;;;58.43;34.90;;;-5.30;99.90;;;;;;4930010;28;20269;-51
2024/01/10 07:04:50;;;;;;;54.83;32.83;;;-5.10;99.90;;;;;;4933317;28;20203;-51
2024/01/10 07:07:17;;;;;;;53.63;34.37;;;-5.20;99.90;;;;;;4941779;28;20212;-51
2024/01/10 07:09:42;;;;;;;50.53;32.67;;;-5.10;99.90;;;;;;4937317;28;20207;-53
2024/01/10 07:12:08;;;;;;;56.97;32.27;;;-5.10;99.90;;;;;;4935598;28;20764;-60
2024/01/10 07:14:33;;;;;;;58.00;33.00;;;-4.90;99.90;;;;;;4932077;28;20269;-59
2024/01/10 07:16:59;;;;;;;55.40;33.27;;;-5.10;99.90;;;;;;4941954;28;20202;-58
2024/01/10 07:19:25;;;;;;;58.17;33.60;;;-5.00;99.90;;;;;;4930139;28;20256;-61
2024/01/10 07:21:50;;;;;;;61.70;32.43;;;-4.90;99.90;;;;;;4930884;28;20903;-54
2024/01/10 07:24:16;;;;;;;59.67;33.50;;;-5.00;99.90;;;;;;4930148;28;20204;-49
2024/01/10 07:26:41;;;;;;;60.87;31.50;;;-5.00;99.90;;;;;;4931116;28;20754;-53
2024/01/10 07:29:09;;;;;;;56.60;30.83;;;-5.10;99.90;;;;;;4926059;28;20194;-51
2024/01/10 07:31:35;;;;;;;56.70;32.13;;;-5.20;99.90;;;;;;4929993;28;20293;-53
2024/01/10 07:34:04;;;;;;;62.20;34.20;;;-5.20;99.90;;;;;;4935478;28;20676;-52
2024/01/10 07:36:33;;;;;;;56.37;32.20;;;-5.10;99.90;;;;;;4937779;28;20199;-64
2024/01/10 07:38:59;;;;;;;54.33;30.57;;;-4.70;99.90;;;;;;4936433;28;20280;-62
2024/01/10 07:41:24;;;;;;;60.97;32.67;;;-4.60;99.90;;;;;;4935933;28;20654;-51
2024/01/10 07:43:50;;;;;;;50.87;30.00;;;-4.40;99.90;;;;;;4939958;28;20321;-52
2024/01/10 07:46:15;;;;;;;44.87;29.03;;;-4.40;99.90;;;;;;4943066;28;20276;-52
2024/01/10 07:48:41;;;;;;;49.30;29.27;;;-4.40;99.90;;;;;;4942437;28;20260;-51
2024/01/10 07:51:06;;;;;;;49.00;29.93;;;-4.30;99.90;;;;;;4940630;28;20795;-52
2024/01/10 07:53:32;;;;;;;49.03;30.53;;;-4.30;99.90;;;;;;4944927;28;20818;-52
2024/01/10 07:55:57;;;;;;;50.73;30.50;;;-4.50;99.90;;;;;;4937449;28;20205;-50
2024/01/10 07:58:23;;;;;;;53.57;29.80;;;-4.40;99.90;;;;;;4933173;28;20216;-51
2024/01/10 08:00:48;;;;;;;58.87;32.17;;;-4.40;99.90;;;;;;4932329;28;20233;-63
2024/01/10 08:03:14;;;;;;;64.83;33.57;;;-4.40;99.90;;;;;;4930067;28;20263;-58
2024/01/10 08:05:39;;;;;;;60.53;31.83;;;-4.60;99.90;;;;;;4929532;28;20675;-58
2024/01/10 08:08:05;;;;;;;53.70;33.60;;;-4.60;99.90;;;;;;4933560;28;20205;-58
2024/01/10 08:10:32;;;;;;;59.00;32.90;;;-4.50;99.90;;;;;;4931811;28;20207;-59
2024/01/10 08:12:57;;;;;;;62.13;34.47;;;-4.50;99.90;;;;;;4928469;28;20205;-60
2024/01/10 08:15:23;;;;;;;57.93;32.60;;;-4.60;99.90;;;;;;4931143;28;20201;-59
2024/01/10 08:17:49;;;;;;;65.20;34.20;;;-4.60;99.90;;;;;;4931566;28;20721;-60
2024/01/10 08:20:19;;;;;;;63.13;35.17;;;-4.60;99.90;;;;;;4928019;28;20907;-59
2024/01/10 08:22:45;;;;;;;54.17;33.93;;;-4.50;99.90;;;;;;4926734;28;20226;-54
2024/01/10 08:25:10;;;;;;;58.77;33.57;;;-4.50;99.90;;;;;;4932186;28;20202;-48
2024/01/10 08:27:36;;;;;;;56.30;31.70;;;-4.40;99.90;;;;;;4932068;28;20556;-50
2024/01/10 08:30:04;;;;;;;61.17;32.80;;;-4.30;99.90;;;;;;4934197;28;20294;-51
2024/01/10 08:32:30;;;;;;;62.80;34.27;;;-4.20;99.90;;;;;;4929704;28;20201;-53
2024/01/10 08:34:55;;;;;;;66.10;34.40;;;-4.00;99.90;;;;;;4930421;28;20203;-52
2024/01/10 08:37:21;;;;;;;50.53;29.30;;;-3.80;99.90;;;;;;4932514;28;20205;-52
2024/01/10 08:39:47;;;;;;;51.37;29.80;;;-3.80;99.20;;;;;;4932727;28;20234;-51
2024/01/10 08:42:12;;;;;;;51.23;30.53;;;-3.70;98.90;;;;;;4931755;28;20231;-52
2024/01/10 08:44:38;;;;;;;54.93;28.60;;;-3.70;99.70;;;;;;4922521;28;20227;-51
2024/01/10 08:47:04;;;;;;;54.47;30.77;;;-3.90;98.20;;;;;;4932032;28;20619;-52
2024/01/10 08:49:29;;;;;;;47.03;28.83;;;-3.70;98.70;;;;;;4931331;28;20203;-50
2024/01/10 08:51:55;;;;;;;54.10;31.30;;;-3.60;99.30;;;;;;4933453;28;20204;-54
2024/01/10 08:54:22;;;;;;;58.43;31.53;;;-3.60;99.80;;;;;;4941087;28;20241;-51
2024/01/10 08:56:48;;;;;;;53.43;32.27;;;-3.60;99.90;;;;;;4932258;28;20204;-50
2024/01/10 08:59:13;;;;;;;51.57;30.57;;;-3.50;99.90;;;;;;4928451;28;20223;-51
2024/01/10 09:01:39;;;;;;;57.97;33.30;;;-3.20;99.90;;;;;;4932626;28;20250;-51
2024/01/10 09:04:07;;;;;;;52.37;34.27;;;-3.10;99.40;;;;;;4930340;28;20210;-50
2024/01/10 09:06:33;;;;;;;51.33;27.70;;;-3.10;99.70;;;;;;4931686;28;20251;-50
2024/01/10 09:08:59;;;;;;;45.37;27.87;;;-3.10;97.80;;;;;;4932993;28;20564;-50
2024/01/10 09:11:24;;;;;;;49.90;25.50;;;-3.10;97.60;;;;;;4938304;28;20211;-51
2024/01/10 09:13:51;;;;;;;48.63;27.43;;;-2.90;97.40;;;;;;4936470;28;20213;-51
2024/01/10 09:16:18;;;;;;;46.17;27.07;;;-2.80;96.10;;;;;;4943070;28;20205;-51
2024/01/10 09:18:44;;;;;;;43.13;27.43;;;-2.80;96.80;;;;;;4941435;28;20236;-51
2024/01/10 09:21:09;;;;;;;50.10;29.03;;;-3.20;96.60;;;;;;4941669;28;20803;-51
2024/01/10 09:23:35;;;;;;;44.97;26.30;;;-3.20;96.80;;;;;;4941691;28;20209;-52
2024/01/10 09:26:00;;;;;;;46.47;27.13;;;-3.40;97.20;;;;;;4941751;28;20243;-50
2024/01/10 09:28:26;;;;;;;55.93;30.73;;;-3.40;97.10;;;;;;4938075;28;20247;-52
2024/01/10 09:30:51;;;;;;;54.77;29.27;;;-3.30;96.90;;;;;;4937860;28;20714;-51
2024/01/10 09:33:17;;;;;;;51.73;28.67;;;-3.40;96.70;;;;;;4943638;28;21055;-51
2024/01/10 09:35:43;;;;;;;45.83;26.97;;;-3.40;96.90;;;;;;4937619;28;20206;-51
2024/01/10 09:38:08;;;;;;;52.57;28.53;;;-3.50;96.40;;;;;;4937368;28;20198;-51
2024/01/10 09:40:34;;;;;;;42.03;26.27;;;-3.20;96.30;;;;;;4937669;28;20814;-55
2024/01/10 09:43:00;;;;;;;50.33;27.27;;;-3.10;96.40;;;;;;4946730;28;20313;-51
2024/01/10 09:45:26;;;;;;;50.53;27.00;;;-3.00;96.70;;;;;;4941468;28;20223;-51
2024/01/10 09:47:55;;;;;;;45.37;26.20;;;-2.80;96.30;;;;;;4939995;28;20245;-53
2024/01/10 09:50:22;;;;;;;46.80;24.73;;;-2.50;94.90;;;;;;4937276;28;20765;-51
2024/01/10 09:52:52;;;;;;;44.83;23.57;;;-2.40;94.80;;;;;;4939633;28;20218;-52
2024/01/10 09:55:23;;;;;;;46.20;27.53;;;-2.80;95.10;;;;;;4947044;28;20751;-52
2024/01/10 09:57:49;;;;;;;46.93;26.83;;;-2.90;95.10;;;;;;4940281;28;20206;-52
2024/01/10 10:00:15;;;;;;;42.93;25.33;;;-2.90;95.50;;;;;;4939595;28;20213;-52
2024/01/10 10:02:42;;;;;;;45.20;25.87;;;-2.90;95.60;;;;;;4932997;28;20348;-52
2024/01/10 10:05:15;;;;;;;49.70;26.90;;;-2.90;95.30;;;;;;4937231;28;20316;-52
2024/01/10 10:07:48;;;;;;;48.57;26.33;;;-2.90;95.10;;;;;;4934005;28;20210;-52
2024/01/10 10:10:15;;;;;;;47.93;25.17;;;-2.60;95.10;;;;;;4941729;28;20704;-52
2024/01/10 10:12:49;;;;;;;49.37;28.30;;;-2.40;94.80;;;;;;4940076;28;20257;-52
2024/01/10 10:15:17;;;;;;;53.10;31.43;;;-2.50;94.80;;;;;;4939695;28;20753;-52
2024/01/10 10:17:47;;;;;;;57.40;33.03;;;-2.50;95.90;;;;;;4938844;28;20231;-51
2024/01/10 10:20:32;;;;;;;64.03;34.53;;;-2.30;96.30;;;;;;4940829;28;20222;-51
2024/01/10 10:23:06;;;;;;;46.80;30.43;;;-2.30;96.10;;;;;;4939905;28;20211;-52
2024/01/10 10:25:42;;;;;;;52.73;31.27;;;-2.30;96.10;;;;;;4942864;28;20503;-51
2024/01/10 10:28:07;;;;;;;61.40;34.27;;;-2.40;96.10;;;;;;4940540;28;20215;-51
2024/01/10 10:30:33;;;;;;;60.07;31.63;;;-2.30;95.90;;;;;;4933250;28;20255;-51
2024/01/10 10:33:00;;;;;;;51.37;32.57;;;-2.20;96.00;;;;;;4939537;28;20201;-51
2024/01/10 10:35:25;;;;;;;64.13;33.70;;;-2.10;95.80;;;;;;4941943;28;20212;-51
2024/01/10 10:37:54;;;;;;;58.23;33.47;;;-1.90;95.60;;;;;;4943306;28;20211;-51
2024/01/10 10:40:20;;;;;;;65.07;33.53;;;-1.80;95.80;;;;;;4940253;28;21040;-50
2024/01/10 10:42:47;;;;;;;55.57;30.97;;;-1.60;95.50;;;;;;4943258;28;20289;-51
2024/01/10 10:45:17;;;;;;;52.57;30.57;;;-0.90;94.00;;;;;;4937978;28;20231;-51
2024/01/10 10:47:45;;;;;;;55.53;30.23;;;-0.50;92.40;;;;;;4932564;28;20266;-51
2024/01/10 10:50:22;;;;;;;42.63;27.13;;;-0.40;92.70;;;;;;4930310;28;20309;-51
2024/01/10 10:52:48;;;;;;;48.87;28.17;;;-0.60;92.20;;;;;;4936480;28;20214;-51
2024/01/10 10:55:18;;;;;;;49.00;30.03;;;-0.80;92.30;;;;;;4936432;28;20234;-51
2024/01/10 10:57:48;;;;;;;49.43;29.17;;;-1.00;92.50;;;;;;4941755;28;20205;-51
2024/01/10 11:00:15;;;;;;;48.87;28.40;;;-1.00;92.30;;;;;;4933954;28;20208;-50
2024/01/10 11:02:42;;;;;;;47.53;29.07;;;-1.00;92.10;;;;;;4943057;28;20303;-51
2024/01/10 11:05:09;;;;;;;51.47;28.40;;;-0.80;91.90;;;;;;4938683;28;20233;-51
2024/01/10 11:07:39;;;;;;;53.30;29.27;;;-0.40;91.50;;;;;;4941873;28;20207;-51
2024/01/10 11:10:11;;;;;;;50.03;26.47;;;0.00;91.20;;;;;;4934602;28;20205;-51
2024/01/10 11:13:14;;;;;;;45.63;27.83;;;0.20;90.90;;;;;;4937965;28;20205;-50
2024/01/10 11:16:02;;;;;;;42.90;25.90;;;-0.20;90.00;;;;;;4934578;28;20311;-51
2024/01/10 11:18:42;;;;;;;44.90;27.57;;;-0.60;88.60;;;;;;4940298;28;20205;-50
2024/01/10 11:21:37;;;;;;;45.70;25.20;;;0.10;89.30;;;;;;4938300;28;20255;-50
2024/01/10 11:24:04;;;;;;;35.13;21.17;;;0.80;84.70;;;;;;4936947;28;20285;-51
2024/01/10 11:26:29;;;;;;;32.40;20.07;;;0.50;83.20;;;;;;4940420;28;20945;-51
2024/01/10 11:28:57;;;;;;;43.00;23.90;;;1.20;79.70;;;;;;4937575;28;20215;-58
2024/01/10 11:31:32;;;;;;;42.17;24.17;;;1.50;77.80;;;;;;4939500;28;20208;-58
2024/01/10 11:34:05;;;;;;;35.50;21.30;;;0.90;77.50;;;;;;4933871;28;20209;-51
2024/01/10 11:36:31;;;;;;;36.73;23.03;;;0.90;79.00;;;;;;4932191;28;20197;-51
2024/01/10 11:39:04;;;;;;;31.53;18.87;;;1.50;76.20;;;;;;4944088;28;20202;-51
2024/01/10 11:41:40;;;;;;;38.30;21.37;;;2.20;71.40;;;;;;4941180;28;20719;-52
2024/01/10 11:44:11;;;;;;;31.67;20.50;;;2.60;67.70;;;;;;4931133;28;20237;-51
2024/01/10 11:46:40;;;;;;;34.10;20.00;;;1.80;67.60;;;;;;4930151;28;20319;-51
2024/01/10 11:49:15;;;;;;;31.97;19.47;;;1.30;69.30;;;;;;4928782;28;20237;-52
2024/01/10 11:51:45;;;;;;;33.60;20.37;;;1.30;70.50;;;;;;4932223;28;20630;-52
2024/01/10 11:54:11;;;;;;;25.07;17.57;;;1.60;69.30;;;;;;4931718;28;20218;-51
2024/01/10 11:56:41;;;;;;;25.47;16.30;;;2.00;64.20;;;;;;4934108;28;20614;-51
2024/01/10 11:59:08;;;;;;;33.23;19.30;;;2.50;62.70;;;;;;4941049;28;20198;-51
2024/01/10 12:01:36;;;;;;;32.87;20.93;;;2.20;64.40;;;;;;4937477;28;20299;-51
2024/01/10 12:04:03;;;;;;;34.03;18.80;;;2.30;64.40;;;;;;4934652;28;20236;-51
2024/01/10 12:06:29;;;;;;;42.40;20.10;;;2.00;64.60;;;;;;4938260;28;20205;-51
2024/01/10 12:08:55;;;;;;;31.27;19.23;;;2.30;64.50;;;;;;4947355;28;20202;-51
2024/01/10 12:11:20;;;;;;;30.63;18.83;;;2.20;63.20;;;;;;4935368;28;20206;-51
2024/01/10 12:13:47;;;;;;;31.50;18.23;;;2.70;62.00;;;;;;4942087;28;20223;-51
2024/01/10 12:16:17;;;;;;;29.57;19.40;;;3.50;59.50;;;;;;4943394;28;20213;-53
2024/01/10 12:18:43;;;;;;;29.60;17.70;;;3.90;57.20;;;;;;4940119;28;20198;-51
2024/01/10 12:21:09;;;;;;;26.50;17.77;;;3.60;57.20;;;;;;4926199;28;20213;-51
2024/01/10 12:23:36;;;;;;;31.37;17.97;;;3.90;56.00;;;;;;4932439;28;20209;-51
2024/01/10 12:26:04;;;;;;;34.93;20.60;;;4.30;54.70;;;;;;4927349;28;20715;-59